Time,TemperatureF,DewpointF,PressureIn,WindDirection,WindDirectionDegrees,WindSpeedMPH,WindSpeedGustMPH,Humidity,HourlyPrecipIn,Conditions,Clouds,dailyrainin,SoftwareType,DateUTC
2013-08-11 00:07:00,71.8,70.0,30.04,SW,235,0.0,0.0,95,0.00,,,0.00,weatherlink.com 1.10,2013-08-11 04:07:00,
2013-08-11 00:22:00,72.0,71.0,30.04,SW,235,0.0,0.0,95,0.00,,,0.00,weatherlink.com 1.10,2013-08-11 04:22:00,
2013-08-11 00:37:00,72.2,71.0,30.04,SW,235,0.0,0.0,96,0.00,,,0.00,weatherlink.com 1.10,2013-08-11 04:37:00,
2013-08-11 00:52:00,72.0,71.0,30.04,SW,235,0.0,0.0,96,0.00,,,0.00,weatherlink.com 1.10,2013-08-11 04:52:00,
2013-08-11 01:07:00,71.8,71.0,30.04,SW,235,0.0,0.0,96,0.00,,,0.00,weatherlink.com 1.10,2013-08-11 05:07:00,
2013-08-11 01:22:00,71.9,71.0,30.04,SW,235,0.0,0.0,96,0.00,,,0.00,weatherlink.com 1.10,2013-08-11 05:22:00,
2013-08-11 01:37:00,72.0,71.0,30.04,SW,235,0.0,0.0,96,0.00,,,0.00,weatherlink.com 1.10,2013-08-11 05:37:00,
2013-08-11 02:22:00,71.8,71.0,30.04,SW,235,0.0,0.0,96,0.00,,,0.00,weatherlink.com 1.10,2013-08-11 06:22:00,
2013-08-11 03:07:00,71.3,70.0,30.04,SW,235,0.0,0.0,96,0.00,,,0.00,weatherlink.com 1.10,2013-08-11 07:07:00,
2013-08-11 03:22:00,71.5,71.0,30.04,SW,235,0.0,0.0,97,0.00,,,0.00,weatherlink.com 1.10,2013-08-11 07:22:00,
2013-08-11 03:52:00,71.2,70.0,30.03,SW,235,0.0,0.0,96,0.00,,,0.00,weatherlink.com 1.10,2013-08-11 07:52:00,
2013-08-11 04:07:00,71.2,70.0,30.03,SW,235,0.0,0.0,97,0.00,,,0.00,weatherlink.com 1.10,2013-08-11 08:07:00,
2013-08-11 04:22:00,71.3,70.0,30.03,SW,235,0.0,0.0,97,0.00,,,0.00,weatherlink.com 1.10,2013-08-11 08:22:00,
2013-08-11 05:07:00,71.7,71.0,30.03,SW,235,0.0,0.0,97,0.00,,,0.00,weatherlink.com 1.10,2013-08-11 09:07:00,
2013-08-11 05:22:00,71.6,70.0,30.03,SW,235,0.0,0.0,96,0.00,,,0.00,weatherlink.com 1.10,2013-08-11 09:22:00,
2013-08-11 05:52:00,71.6,70.0,30.03,SW,235,0.0,0.0,96,0.00,,,0.00,weatherlink.com 1.10,2013-08-11 09:52:00,
2013-08-11 06:07:00,71.4,70.0,30.03,SW,235,0.0,0.0,96,0.00,,,0.00,weatherlink.com 1.10,2013-08-11 10:07:00,
2013-08-11 06:22:00,71.4,71.0,30.04,SW,235,0.0,0.0,97,0.00,,,0.00,weatherlink.com 1.10,2013-08-11 10:22:00,
2013-08-11 06:37:00,71.3,71.0,30.04,SW,235,0.0,0.0,98,0.00,,,0.00,weatherlink.com 1.10,2013-08-11 10:37:00,
2013-08-11 07:22:00,71.0,70.0,30.04,SW,235,0.0,0.0,98,0.00,,,0.00,weatherlink.com 1.10,2013-08-11 11:22:00,
2013-08-11 07:37:00,71.4,71.0,30.04,SW,235,0.0,0.0,99,0.00,,,0.00,weatherlink.com 1.10,2013-08-11 11:37:00,
2013-08-11 07:52:00,71.6,71.0,30.04,SW,235,0.0,0.0,99,0.00,,,0.00,weatherlink.com 1.10,2013-08-11 11:52:00,
2013-08-11 08:22:00,72.1,72.0,30.05,WSW,240,0.0,1.0,99,0.00,,,0.00,weatherlink.com 1.10,2013-08-11 12:22:00,
2013-08-11 08:37:00,72.3,72.0,30.05,SW,233,0.0,1.0,99,0.00,,,0.00,weatherlink.com 1.10,2013-08-11 12:37:00,
2013-08-11 08:52:00,72.6,72.0,30.05,SW,233,0.0,0.0,98,0.00,,,0.00,weatherlink.com 1.10,2013-08-11 12:52:00,
2013-08-11 09:07:00,72.9,72.0,30.05,SW,233,0.0,0.0,98,0.00,,,0.00,weatherlink.com 1.10,2013-08-11 13:07:00,
2013-08-11 09:22:00,73.2,73.0,30.05,SW,233,0.0,0.0,98,0.00,,,0.00,weatherlink.com 1.10,2013-08-11 13:22:00,
2013-08-11 09:53:00,75.7,75.0,30.05,West,268,0.0,1.0,96,0.00,,,0.00,weatherlink.com 1.10,2013-08-11 13:53:00,
2013-08-11 10:08:00,76.2,74.0,30.05,SW,224,0.0,2.0,93,0.00,,,0.00,weatherlink.com 1.10,2013-08-11 14:08:00,
2013-08-11 10:23:00,76.9,75.0,30.05,SW,222,0.0,1.0,92,0.00,,,0.00,weatherlink.com 1.10,2013-08-11 14:23:00,
2013-08-11 10:38:00,78.2,75.0,30.05,West,280,0.0,1.0,90,0.00,,,0.00,weatherlink.com 1.10,2013-08-11 14:38:00,
2013-08-11 11:08:00,80.8,77.0,30.05,SSW,203,1.0,2.0,87,0.00,,,0.00,weatherlink.com 1.10,2013-08-11 15:08:00,
2013-08-11 11:53:00,81.9,75.0,30.05,SW,236,1.0,1.0,80,0.00,,,0.00,weatherlink.com 1.10,2013-08-11 15:53:00,
2013-08-11 12:08:00,80.3,75.0,30.04,SW,222,0.0,2.0,83,0.00,,,0.00,weatherlink.com 1.10,2013-08-11 16:08:00,
2013-08-11 12:23:00,80.4,75.0,30.04,ESE,104,2.0,2.0,82,0.00,,,0.00,weatherlink.com 1.10,2013-08-11 16:23:00,
2013-08-11 12:38:00,82.5,75.0,30.04,SSW,197,0.0,5.0,77,0.00,,,0.00,weatherlink.com 1.10,2013-08-11 16:38:00,
2013-08-11 12:53:00,84.3,74.0,30.03,SW,231,1.0,2.0,70,0.00,,,0.00,weatherlink.com 1.10,2013-08-11 16:53:00,
2013-08-11 13:08:00,85.1,74.0,30.04,SW,225,0.0,4.0,69,0.00,,,0.00,weatherlink.com 1.10,2013-08-11 17:08:00,
2013-08-11 13:23:00,83.7,75.0,30.03,SSW,210,1.0,5.0,74,0.00,,,0.00,weatherlink.com 1.10,2013-08-11 17:23:00,
2013-08-11 13:38:00,83.4,74.0,30.03,WSW,250,1.0,3.0,73,0.00,,,0.00,weatherlink.com 1.10,2013-08-11 17:38:00,
2013-08-11 13:53:00,84.0,76.0,30.02,SW,218,0.0,5.0,76,0.00,,,0.00,weatherlink.com 1.10,2013-08-11 17:53:00,
2013-08-11 14:08:00,86.3,74.0,30.02,WNW,285,1.0,4.0,66,0.00,,,0.00,weatherlink.com 1.10,2013-08-11 18:08:00,
2013-08-11 14:38:00,87.6,73.0,30.02,NNW,339,3.0,5.0,62,0.00,,,0.00,weatherlink.com 1.10,2013-08-11 18:38:00,
2013-08-11 15:08:00,86.7,74.0,30.01,SW,218,1.0,4.0,66,0.00,,,0.00,weatherlink.com 1.10,2013-08-11 19:08:00,
2013-08-11 15:23:00,88.4,75.0,30.01,SSW,210,2.0,4.0,64,0.00,,,0.00,weatherlink.com 1.10,2013-08-11 19:23:00,
2013-08-11 15:38:00,88.2,72.0,30.00,West,281,0.0,2.0,59,0.00,,,0.00,weatherlink.com 1.10,2013-08-11 19:38:00,
2013-08-11 15:53:00,89.3,72.0,30.00,NE,54,1.0,3.0,57,0.00,,,0.00,weatherlink.com 1.10,2013-08-11 19:53:00,
2013-08-11 16:09:00,88.9,72.0,30.00,WNW,288,0.0,2.0,58,0.00,,,0.00,weatherlink.com 1.10,2013-08-11 20:09:00,
2013-08-11 16:23:00,88.1,70.0,29.99,NNW,340,2.0,4.0,56,0.00,,,0.00,weatherlink.com 1.10,2013-08-11 20:23:00,
2013-08-11 16:54:00,88.9,71.0,29.99,WNW,302,1.0,3.0,56,0.00,,,0.00,weatherlink.com 1.10,2013-08-11 20:54:00,
2013-08-11 17:09:00,88.8,71.0,29.99,East,86,0.0,2.0,56,0.00,,,0.00,weatherlink.com 1.10,2013-08-11 21:09:00,
2013-08-11 17:24:00,89.4,73.0,29.99,East,79,3.0,3.0,58,0.00,,,0.00,weatherlink.com 1.10,2013-08-11 21:24:00,
2013-08-11 17:39:00,86.8,71.0,29.99,NNW,339,2.0,4.0,60,0.00,,,0.00,weatherlink.com 1.10,2013-08-11 21:39:00,
2013-08-11 17:54:00,85.9,71.0,29.99,NE,34,2.0,3.0,62,0.00,,,0.00,weatherlink.com 1.10,2013-08-11 21:54:00,
2013-08-11 18:09:00,86.1,71.0,29.99,West,267,0.0,6.0,61,0.00,,,0.00,weatherlink.com 1.10,2013-08-11 22:09:00,
2013-08-11 18:24:00,85.9,71.0,29.98,WNW,287,0.0,5.0,62,0.00,,,0.00,weatherlink.com 1.10,2013-08-11 22:24:00,
2013-08-11 18:39:00,85.6,71.0,29.98,North,1,1.0,1.0,62,0.00,,,0.00,weatherlink.com 1.10,2013-08-11 22:39:00,
2013-08-11 18:54:00,84.4,71.0,29.98,West,260,0.0,3.0,64,0.00,,,0.00,weatherlink.com 1.10,2013-08-11 22:54:00,
2013-08-11 19:39:00,82.3,71.0,29.99,WNW,287,0.0,3.0,68,0.00,,,0.00,weatherlink.com 1.10,2013-08-11 23:39:00,
2013-08-11 19:54:00,82.0,71.0,30.00,NE,36,1.0,3.0,69,0.00,,,0.00,weatherlink.com 1.10,2013-08-11 23:54:00,
2013-08-11 20:09:00,81.4,70.0,30.00,NNW,340,0.0,5.0,69,0.00,,,0.00,weatherlink.com 1.10,2013-08-12 00:09:00,
2013-08-11 20:24:00,80.5,69.0,30.00,NNE,12,1.0,3.0,69,0.00,,,0.00,weatherlink.com 1.10,2013-08-12 00:24:00,
2013-08-11 20:39:00,79.8,69.0,30.01,NNW,344,0.0,3.0,70,0.00,,,0.00,weatherlink.com 1.10,2013-08-12 00:39:00,
2013-08-11 20:54:00,79.0,68.0,30.01,NNE,33,0.0,2.0,70,0.00,,,0.00,weatherlink.com 1.10,2013-08-12 00:54:00,
2013-08-11 21:39:00,77.4,66.0,30.02,NNW,329,0.0,1.0,69,0.00,,,0.00,weatherlink.com 1.10,2013-08-12 01:39:00,
2013-08-11 21:54:00,76.9,66.0,30.02,NNW,338,0.0,3.0,68,0.00,,,0.00,weatherlink.com 1.10,2013-08-12 01:54:00,
2013-08-11 22:09:00,76.4,66.0,30.03,North,349,0.0,1.0,69,0.00,,,0.00,weatherlink.com 1.10,2013-08-12 02:09:00,
2013-08-11 22:24:00,76.0,66.0,30.03,North,349,0.0,0.0,72,0.00,,,0.00,weatherlink.com 1.10,2013-08-12 02:24:00,
2013-08-11 22:39:00,75.6,66.0,30.03,NNW,328,0.0,1.0,73,0.00,,,0.00,weatherlink.com 1.10,2013-08-12 02:39:00,
2013-08-11 22:54:00,75.6,66.0,30.03,NNW,328,0.0,0.0,72,0.00,,,0.00,weatherlink.com 1.10,2013-08-12 02:54:00,
2013-08-11 23:09:00,75.1,66.0,30.04,NNW,329,0.0,0.0,73,0.00,,,0.00,weatherlink.com 1.10,2013-08-12 03:09:00,
2013-08-11 23:24:00,74.2,66.0,30.04,NNW,328,0.0,0.0,75,0.00,,,0.00,weatherlink.com 1.10,2013-08-12 03:24:00,
2013-08-11 23:39:00,73.8,66.0,30.03,NNW,329,0.0,0.0,76,0.00,,,0.00,weatherlink.com 1.10,2013-08-12 03:39:00,
2013-08-11 23:54:00,74.0,66.0,30.03,NNW,328,0.0,1.0,75,0.00,,,0.00,weatherlink.com 1.10,2013-08-12 03:54:00,